sensor_id;sensor_type;location;lat;lon;timestamp;pressure;altitude;pressure_sealevel;temperature;humidity
31331;BME280;34067;39.548;-76.088;2023-02-28T00:01:10;100497.58;;;1.29;88.26
31331;BME280;34067;39.548;-76.088;2023-02-28T00:03:39;100511.20;;;0.32;91.36
31331;BME280;34067;39.548;-76.088;2023-02-28T00:06:10;100560.15;;;1.57;87.83
31331;BME280;34067;39.548;-76.088;2023-02-28T00:08:38;100583.68;;;2.00;84.67
31331;BME280;34067;39.548;-76.088;2023-02-28T00:11:08;100662.12;;;1.46;86.33
31331;BME280;34067;39.548;-76.088;2023-02-28T00:13:40;100716.51;;;3.01;78.34
31331;BME280;34067;39.548;-76.088;2023-02-28T00:16:10;100643.89;;;3.01;77.77
31331;BME280;34067;39.548;-76.088;2023-02-28T00:18:40;100621.74;;;1.67;82.72
31331;BME280;34067;39.548;-76.088;2023-02-28T00:21:09;100648.54;;;2.48;84.33
31331;BME280;34067;39.548;-76.088;2023-02-28T00:23:37;100658.38;;;2.98;80.08
31331;BME280;34067;39.548;-76.088;2023-02-28T00:26:05;100612.73;;;2.38;82.24
31331;BME280;34067;39.548;-76.088;2023-02-28T00:28:33;100553.40;;;1.38;87.53
31331;BME280;34067;39.548;-76.088;2023-02-28T00:31:02;100494.08;;;0.72;92.54
31331;BME280;34067;39.548;-76.088;2023-02-28T00:33:30;100494.74;;;1.45;94.18
31331;BME280;34067;39.548;-76.088;2023-02-28T00:36:08;100534.17;;;1.09;100.00
31331;BME280;34067;39.548;-76.088;2023-02-28T00:38:38;100561.99;;;1.97;99.01
31331;BME280;34067;39.548;-76.088;2023-02-28T00:41:07;100543.90;;;1.28;100.00
31331;BME280;34067;39.548;-76.088;2023-02-28T00:43:37;100571.63;;;1.93;96.94
31331;BME280;34067;39.548;-76.088;2023-02-28T00:46:05;100583.82;;;1.65;93.16
31331;BME280;34067;39.548;-76.088;2023-02-28T00:48:35;100583.08;;;3.28;87.40
31331;BME280;34067;39.548;-76.088;2023-02-28T00:51:03;100583.06;;;3.13;82.41
31331;BME280;34067;39.548;-76.088;2023-02-28T00:53:32;100588.51;;;3.60;79.49
31331;BME280;34067;39.548;-76.088;2023-02-28T00:56:00;100587.56;;;4.63;78.32
31331;BME280;34067;39.548;-76.088;2023-02-28T00:58:28;100556.65;;;3.74;78.77
31331;BME280;34067;39.548;-76.088;2023-02-28T01:00:57;100586.63;;;3.40;80.42
31331;BME280;34067;39.548;-76.088;2023-02-28T01:03:25;100622.34;;;3.80;78.83
31331;BME280;34067;39.548;-76.088;2023-02-28T01:05:53;100581.15;;;2.14;82.40
31331;BME280;34067;39.548;-76.088;2023-02-28T01:08:21;100613.65;;;2.62;82.95
31331;BME280;34067;39.548;-76.088;2023-02-28T01:10:50;100639.44;;;2.34;85.58
31331;BME280;34067;39.548;-76.088;2023-02-28T01:13:19;100632.27;;;2.92;86.18
31331;BME280;34067;39.548;-76.088;2023-02-28T01:15:50;100574.31;;;2.24;86.11
31331;BME280;34067;39.548;-76.088;2023-02-28T01:18:20;100475.62;;;1.71;91.98
31331;BME280;34067;39.548;-76.088;2023-02-28T01:20:49;100404.45;;;0.60;98.07
31331;BME280;34067;39.548;-76.088;2023-02-28T01:23:18;100361.53;;;0.45;100.00
31331;BME280;34067;39.548;-76.088;2023-02-28T01:25:46;100364.01;;;-0.70;100.00
31331;BME280;34067;39.548;-76.088;2023-02-28T01:28:14;100333.04;;;-0.63;100.00
31331;BME280;34067;39.548;-76.088;2023-02-28T01:30:42;100307.09;;;-0.15;100.00
31331;BME280;34067;39.548;-76.088;2023-02-28T01:33:10;100299.45;;;-0.81;100.00
31331;BME280;34067;39.548;-76.088;2023-02-28T01:35:37;100402.26;;;0.37;100.00
31331;BME280;34067;39.548;-76.088;2023-02-28T01:38:05;100416.89;;;0.39;100.00
31331;BME280;34067;39.548;-76.088;2023-02-28T01:40:34;100425.01;;;0.29;100.00
31331;BME280;34067;39.548;-76.088;2023-02-28T01:43:02;100415.99;;;0.15;100.00
31331;BME280;34067;39.548;-76.088;2023-02-28T01:45:31;100409.96;;;0.17;100.00
31331;BME280;34067;39.548;-76.088;2023-02-28T01:48:05;100387.97;;;0.33;100.00
31331;BME280;34067;39.548;-76.088;2023-02-28T01:50:39;100379.60;;;0.97;100.00
31331;BME280;34067;39.548;-76.088;2023-02-28T01:53:12;100357.72;;;0.85;100.00
31331;BME280;34067;39.548;-76.088;2023-02-28T01:55:41;100315.53;;;0.57;100.00
31331;BME280;34067;39.548;-76.088;2023-02-28T01:58:11;100288.32;;;-0.09;100.00
31331;BME280;34067;39.548;-76.088;2023-02-28T02:00:39;100300.04;;;-0.20;100.00
31331;BME280;34067;39.548;-76.088;2023-02-28T02:03:09;100314.94;;;0.07;100.00
31331;BME280;34067;39.548;-76.088;2023-02-28T02:05:40;100311.04;;;0.46;100.00
31331;BME280;34067;39.548;-76.088;2023-02-28T02:08:11;100313.54;;;-0.03;100.00
31331;BME280;34067;39.548;-76.088;2023-02-28T02:10:43;100316.63;;;-0.85;100.00
31331;BME280;34067;39.548;-76.088;2023-02-28T02:13:56;100301.31;;;0.59;100.00
31331;BME280;34067;39.548;-76.088;2023-02-28T02:16:38;100261.21;;;-0.27;100.00
31331;BME280;34067;39.548;-76.088;2023-02-28T02:19:22;100248.30;;;-0.31;100.00
31331;BME280;34067;39.548;-76.088;2023-02-28T02:22:20;100262.61;;;0.18;100.00
31331;BME280;34067;39.548;-76.088;2023-02-28T02:25:16;100246.72;;;-0.04;100.00
31331;BME280;34067;39.548;-76.088;2023-02-28T02:27:58;100250.14;;;0.37;100.00
31331;BME280;34067;39.548;-76.088;2023-02-28T02:30:48;100238.09;;;-0.29;100.00
31331;BME280;34067;39.548;-76.088;2023-02-28T02:33:46;100232.03;;;0.13;100.00
31331;BME280;34067;39.548;-76.088;2023-02-28T02:36:24;100226.09;;;1.00;100.00
31331;BME280;34067;39.548;-76.088;2023-02-28T02:38:58;100233.02;;;0.44;100.00
31331;BME280;34067;39.548;-76.088;2023-02-28T02:41:35;100225.18;;;1.11;98.75
31331;BME280;34067;39.548;-76.088;2023-02-28T02:44:10;100223.38;;;0.89;100.00
31331;BME280;34067;39.548;-76.088;2023-02-28T02:46:43;100214.42;;;1.53;95.18
31331;BME280;34067;39.548;-76.088;2023-02-28T02:49:17;100207.00;;;1.76;94.60
31331;BME280;34067;39.548;-76.088;2023-02-28T02:51:48;100192.38;;;1.46;93.27
31331;BME280;34067;39.548;-76.088;2023-02-28T02:54:19;100194.49;;;1.51;94.11
31331;BME280;34067;39.548;-76.088;2023-02-28T02:56:49;100199.39;;;1.45;95.15
31331;BME280;34067;39.548;-76.088;2023-02-28T02:59:21;100177.99;;;2.12;90.05
31331;BME280;34067;39.548;-76.088;2023-02-28T03:01:53;100162.05;;;1.95;91.37
31331;BME280;34067;39.548;-76.088;2023-02-28T03:04:24;100157.85;;;1.30;95.86
31331;BME280;34067;39.548;-76.088;2023-02-28T03:06:54;100148.08;;;1.30;93.67
31331;BME280;34067;39.548;-76.088;2023-02-28T03:09:23;100137.75;;;1.95;94.58
31331;BME280;34067;39.548;-76.088;2023-02-28T03:11:53;100120.56;;;1.75;94.51
31331;BME280;34067;39.548;-76.088;2023-02-28T03:14:32;100103.19;;;1.15;95.34
31331;BME280;34067;39.548;-76.088;2023-02-28T03:17:33;100088.28;;;1.03;99.67
31331;BME280;34067;39.548;-76.088;2023-02-28T03:20:13;100086.76;;;0.96;100.00
31331;BME280;34067;39.548;-76.088;2023-02-28T03:23:09;100087.71;;;1.56;99.12
31331;BME280;34067;39.548;-76.088;2023-02-28T03:25:45;100094.16;;;1.41;95.95
31331;BME280;34067;39.548;-76.088;2023-02-28T03:28:20;100086.12;;;2.33;90.95
31331;BME280;34067;39.548;-76.088;2023-02-28T03:30:52;100080.84;;;2.28;88.52
31331;BME280;34067;39.548;-76.088;2023-02-28T03:33:26;100073.54;;;3.05;85.95
31331;BME280;34067;39.548;-76.088;2023-02-28T03:35:58;100065.30;;;2.78;83.95
31331;BME280;34067;39.548;-76.088;2023-02-28T03:38:31;100050.45;;;3.06;84.22
31331;BME280;34067;39.548;-76.088;2023-02-28T03:41:09;100042.20;;;3.14;84.46
31331;BME280;34067;39.548;-76.088;2023-02-28T03:43:44;100034.65;;;3.30;86.72
31331;BME280;34067;39.548;-76.088;2023-02-28T03:46:18;100026.17;;;2.80;88.71
31331;BME280;34067;39.548;-76.088;2023-02-28T03:48:53;100006.08;;;3.94;85.82
31331;BME280;34067;39.548;-76.088;2023-02-28T03:51:24;100010.00;;;3.88;83.97
31331;BME280;34067;39.548;-76.088;2023-02-28T03:53:57;100013.50;;;3.52;85.74
31331;BME280;34067;39.548;-76.088;2023-02-28T03:56:31;100008.84;;;3.99;82.43
31331;BME280;34067;39.548;-76.088;2023-02-28T03:59:04;99998.44;;;3.20;83.28
31331;BME280;34067;39.548;-76.088;2023-02-28T04:01:37;99979.13;;;3.18;83.86
31331;BME280;34067;39.548;-76.088;2023-02-28T04:04:08;99976.75;;;2.68;86.38
31331;BME280;34067;39.548;-76.088;2023-02-28T04:06:37;99994.25;;;3.40;84.48
31331;BME280;34067;39.548;-76.088;2023-02-28T04:09:07;99993.24;;;3.54;85.81
31331;BME280;34067;39.548;-76.088;2023-02-28T04:11:38;99994.03;;;3.51;85.33
31331;BME280;34067;39.548;-76.088;2023-02-28T04:14:09;99980.61;;;3.09;85.44
31331;BME280;34067;39.548;-76.088;2023-02-28T04:16:38;99976.69;;;2.76;88.67
31331;BME280;34067;39.548;-76.088;2023-02-28T04:19:08;99990.28;;;2.69;89.86
31331;BME280;34067;39.548;-76.088;2023-02-28T04:21:39;100006.04;;;2.36;92.15
31331;BME280;34067;39.548;-76.088;2023-02-28T04:24:10;100016.40;;;1.06;94.86
31331;BME280;34067;39.548;-76.088;2023-02-28T04:26:38;100007.37;;;0.50;97.46
31331;BME280;34067;39.548;-76.088;2023-02-28T04:29:06;100010.17;;;1.28;100.00
31331;BME280;34067;39.548;-76.088;2023-02-28T04:31:34;100041.20;;;0.54;100.00
31331;BME280;34067;39.548;-76.088;2023-02-28T04:34:02;100045.35;;;0.37;100.00
31331;BME280;34067;39.548;-76.088;2023-02-28T04:36:30;100031.24;;;0.65;100.00
31331;BME280;34067;39.548;-76.088;2023-02-28T04:38:58;100023.65;;;1.21;100.00
31331;BME280;34067;39.548;-76.088;2023-02-28T04:41:26;100058.50;;;1.87;100.00
31331;BME280;34067;39.548;-76.088;2023-02-28T04:43:54;100081.24;;;0.22;100.00
31331;BME280;34067;39.548;-76.088;2023-02-28T04:46:23;100055.66;;;-0.65;100.00
31331;BME280;34067;39.548;-76.088;2023-02-28T04:48:51;100011.35;;;0.67;100.00
31331;BME280;34067;39.548;-76.088;2023-02-28T04:51:19;100026.76;;;0.99;100.00
31331;BME280;34067;39.548;-76.088;2023-02-28T04:53:48;100059.68;;;0.58;100.00
31331;BME280;34067;39.548;-76.088;2023-02-28T04:56:18;100063.27;;;0.58;100.00
31331;BME280;34067;39.548;-76.088;2023-02-28T04:58:48;100013.32;;;0.57;100.00
31331;BME280;34067;39.548;-76.088;2023-02-28T05:01:20;99938.11;;;1.51;100.00
31331;BME280;34067;39.548;-76.088;2023-02-28T05:03:49;99975.22;;;1.59;100.00
31331;BME280;34067;39.548;-76.088;2023-02-28T05:06:18;100012.06;;;0.69;100.00
31331;BME280;34067;39.548;-76.088;2023-02-28T05:08:46;99998.28;;;0.21;100.00
31331;BME280;34067;39.548;-76.088;2023-02-28T05:11:17;99949.17;;;1.15;100.00
31331;BME280;34067;39.548;-76.088;2023-02-28T05:13:45;99885.10;;;1.03;100.00
31331;BME280;34067;39.548;-76.088;2023-02-28T05:16:13;99865.64;;;0.80;100.00
31331;BME280;34067;39.548;-76.088;2023-02-28T05:18:42;99897.85;;;1.80;100.00
31331;BME280;34067;39.548;-76.088;2023-02-28T05:21:50;99923.82;;;2.39;100.00
31331;BME280;34067;39.548;-76.088;2023-02-28T05:24:20;99937.21;;;1.08;100.00
31331;BME280;34067;39.548;-76.088;2023-02-28T05:26:48;99905.65;;;1.34;100.00
31331;BME280;34067;39.548;-76.088;2023-02-28T05:29:17;99891.28;;;1.87;99.54
31331;BME280;34067;39.548;-76.088;2023-02-28T05:31:45;99858.89;;;1.82;98.68
31331;BME280;34067;39.548;-76.088;2023-02-28T05:34:13;99866.14;;;3.00;95.83
31331;BME280;34067;39.548;-76.088;2023-02-28T05:36:42;99871.51;;;2.03;93.43
31331;BME280;34067;39.548;-76.088;2023-02-28T05:39:10;99871.80;;;2.46;95.07
31331;BME280;34067;39.548;-76.088;2023-02-28T05:41:39;99857.36;;;3.59;89.12
31331;BME280;34067;39.548;-76.088;2023-02-28T05:44:08;99841.81;;;3.38;85.51
31331;BME280;34067;39.548;-76.088;2023-02-28T05:46:36;99832.57;;;3.08;86.92
31331;BME280;34067;39.548;-76.088;2023-02-28T05:49:05;99825.17;;;3.26;88.04
31331;BME280;34067;39.548;-76.088;2023-02-28T05:51:34;99830.20;;;2.86;90.02
31331;BME280;34067;39.548;-76.088;2023-02-28T05:54:02;99830.87;;;3.22;89.37
31331;BME280;34067;39.548;-76.088;2023-02-28T05:56:30;99839.18;;;2.17;89.66
31331;BME280;34067;39.548;-76.088;2023-02-28T05:58:59;99854.44;;;2.90;92.77
31331;BME280;34067;39.548;-76.088;2023-02-28T06:03:10;99856.29;;;3.16;89.91
31331;BME280;34067;39.548;-76.088;2023-02-28T06:05:39;99858.90;;;2.58;92.26
31331;BME280;34067;39.548;-76.088;2023-02-28T06:08:07;99868.44;;;1.04;99.78
31331;BME280;34067;39.548;-76.088;2023-02-28T06:10:36;99861.38;;;1.60;99.10
31331;BME280;34067;39.548;-76.088;2023-02-28T06:13:04;99850.97;;;1.06;100.00
31331;BME280;34067;39.548;-76.088;2023-02-28T06:15:33;99860.61;;;1.72;100.00
31331;BME280;34067;39.548;-76.088;2023-02-28T06:18:01;99856.39;;;0.75;100.00
31331;BME280;34067;39.548;-76.088;2023-02-28T06:20:29;99846.84;;;0.99;100.00
31331;BME280;34067;39.548;-76.088;2023-02-28T06:22:56;99835.58;;;0.91;100.00
31331;BME280;34067;39.548;-76.088;2023-02-28T06:25:25;99856.19;;;0.31;100.00
31331;BME280;34067;39.548;-76.088;2023-02-28T06:27:54;99865.71;;;1.23;100.00
31331;BME280;34067;39.548;-76.088;2023-02-28T06:30:22;99866.65;;;1.14;100.00
31331;BME280;34067;39.548;-76.088;2023-02-28T06:32:50;99868.92;;;0.78;100.00
31331;BME280;34067;39.548;-76.088;2023-02-28T06:35:19;99872.33;;;0.97;100.00
31331;BME280;34067;39.548;-76.088;2023-02-28T06:37:47;99868.76;;;0.29;100.00
31331;BME280;34067;39.548;-76.088;2023-02-28T06:40:15;99869.96;;;0.71;100.00
31331;BME280;34067;39.548;-76.088;2023-02-28T06:42:43;99855.42;;;1.07;100.00
31331;BME280;34067;39.548;-76.088;2023-02-28T06:45:11;99862.97;;;1.65;100.00
31331;BME280;34067;39.548;-76.088;2023-02-28T06:47:41;99873.30;;;0.39;100.00
31331;BME280;34067;39.548;-76.088;2023-02-28T06:50:12;99865.39;;;1.47;100.00
31331;BME280;34067;39.548;-76.088;2023-02-28T06:52:40;99863.71;;;-0.17;100.00
31331;BME280;34067;39.548;-76.088;2023-02-28T06:55:09;99854.40;;;1.78;100.00
31331;BME280;34067;39.548;-76.088;2023-02-28T06:57:37;99854.34;;;1.61;100.00
31331;BME280;34067;39.548;-76.088;2023-02-28T07:00:08;99852.88;;;1.41;100.00
31331;BME280;34067;39.548;-76.088;2023-02-28T07:02:37;99852.61;;;0.14;100.00
31331;BME280;34067;39.548;-76.088;2023-02-28T07:05:05;99852.93;;;0.68;100.00
31331;BME280;34067;39.548;-76.088;2023-02-28T07:07:33;99856.50;;;0.02;100.00
31331;BME280;34067;39.548;-76.088;2023-02-28T07:10:01;99873.81;;;0.00;100.00
31331;BME280;34067;39.548;-76.088;2023-02-28T07:12:28;99848.29;;;0.61;100.00
31331;BME280;34067;39.548;-76.088;2023-02-28T07:14:56;99837.53;;;1.40;100.00
31331;BME280;34067;39.548;-76.088;2023-02-28T07:17:23;99843.22;;;0.88;100.00
31331;BME280;34067;39.548;-76.088;2023-02-28T07:19:51;99848.81;;;1.24;100.00
31331;BME280;34067;39.548;-76.088;2023-02-28T07:22:19;99848.45;;;0.59;100.00
31331;BME280;34067;39.548;-76.088;2023-02-28T07:24:48;99841.87;;;-0.21;100.00
31331;BME280;34067;39.548;-76.088;2023-02-28T07:27:16;99827.30;;;-0.01;100.00
31331;BME280;34067;39.548;-76.088;2023-02-28T07:29:43;99822.82;;;-0.33;100.00
31331;BME280;34067;39.548;-76.088;2023-02-28T07:32:11;99838.04;;;-0.59;100.00
31331;BME280;34067;39.548;-76.088;2023-02-28T07:34:38;99843.51;;;-0.11;100.00
31331;BME280;34067;39.548;-76.088;2023-02-28T07:37:07;99849.99;;;-0.15;100.00
31331;BME280;34067;39.548;-76.088;2023-02-28T07:39:35;99852.36;;;1.11;100.00
31331;BME280;34067;39.548;-76.088;2023-02-28T07:42:05;99854.85;;;1.18;100.00
31331;BME280;34067;39.548;-76.088;2023-02-28T07:44:33;99857.28;;;0.55;100.00
31331;BME280;34067;39.548;-76.088;2023-02-28T07:47:01;99854.45;;;0.34;100.00
31331;BME280;34067;39.548;-76.088;2023-02-28T07:49:28;99853.21;;;1.21;100.00
31331;BME280;34067;39.548;-76.088;2023-02-28T07:51:57;99854.89;;;1.16;100.00
31331;BME280;34067;39.548;-76.088;2023-02-28T07:54:24;99861.94;;;1.56;100.00
31331;BME280;34067;39.548;-76.088;2023-02-28T07:56:52;99844.22;;;1.10;100.00
31331;BME280;34067;39.548;-76.088;2023-02-28T07:59:20;99839.90;;;1.27;100.00
31331;BME280;34067;39.548;-76.088;2023-02-28T08:01:48;99837.06;;;0.22;100.00
31331;BME280;34067;39.548;-76.088;2023-02-28T08:04:16;99850.06;;;1.27;100.00
31331;BME280;34067;39.548;-76.088;2023-02-28T08:06:44;99831.49;;;1.34;100.00
31331;BME280;34067;39.548;-76.088;2023-02-28T08:09:12;99839.16;;;0.93;100.00
31331;BME280;34067;39.548;-76.088;2023-02-28T08:11:40;99848.12;;;1.15;100.00
31331;BME280;34067;39.548;-76.088;2023-02-28T08:14:09;99838.98;;;0.75;100.00
31331;BME280;34067;39.548;-76.088;2023-02-28T08:16:36;99856.62;;;2.34;100.00
31331;BME280;34067;39.548;-76.088;2023-02-28T08:19:03;99854.93;;;2.49;100.00
31331;BME280;34067;39.548;-76.088;2023-02-28T08:21:32;99854.17;;;2.84;97.47
31331;BME280;34067;39.548;-76.088;2023-02-28T08:24:00;99848.85;;;2.01;97.32
31331;BME280;34067;39.548;-76.088;2023-02-28T08:26:27;99852.91;;;2.66;95.66
31331;BME280;34067;39.548;-76.088;2023-02-28T08:28:55;99859.63;;;2.78;90.93
31331;BME280;34067;39.548;-76.088;2023-02-28T08:31:23;99840.89;;;3.13;88.71
31331;BME280;34067;39.548;-76.088;2023-02-28T08:33:52;99832.87;;;3.49;87.44
31331;BME280;34067;39.548;-76.088;2023-02-28T08:36:20;99840.41;;;2.27;87.03
31331;BME280;34067;39.548;-76.088;2023-02-28T08:38:47;99852.97;;;2.64;86.01
31331;BME280;34067;39.548;-76.088;2023-02-28T08:41:16;99875.35;;;1.99;92.44
31331;BME280;34067;39.548;-76.088;2023-02-28T08:43:44;99885.64;;;1.98;94.30
31331;BME280;34067;39.548;-76.088;2023-02-28T08:46:13;99886.88;;;1.65;96.36
31331;BME280;34067;39.548;-76.088;2023-02-28T08:48:42;99877.77;;;2.38;96.95
31331;BME280;34067;39.548;-76.088;2023-02-28T08:51:13;99865.51;;;1.98;97.28
31331;BME280;34067;39.548;-76.088;2023-02-28T08:53:41;99863.56;;;1.39;99.90
31331;BME280;34067;39.548;-76.088;2023-02-28T08:56:11;99876.80;;;1.22;100.00
31331;BME280;34067;39.548;-76.088;2023-02-28T08:58:41;99895.59;;;1.12;100.00
31331;BME280;34067;39.548;-76.088;2023-02-28T09:01:11;99899.12;;;1.35;100.00
31331;BME280;34067;39.548;-76.088;2023-02-28T09:03:39;99897.79;;;2.14;97.73
31331;BME280;34067;39.548;-76.088;2023-02-28T09:06:08;99899.91;;;1.71;97.52
31331;BME280;34067;39.548;-76.088;2023-02-28T09:08:36;99900.02;;;1.87;100.00
31331;BME280;34067;39.548;-76.088;2023-02-28T09:11:04;99904.02;;;1.97;100.00
31331;BME280;34067;39.548;-76.088;2023-02-28T09:13:33;99907.75;;;0.75;100.00
31331;BME280;34067;39.548;-76.088;2023-02-28T09:16:03;99913.46;;;1.26;100.00
31331;BME280;34067;39.548;-76.088;2023-02-28T09:18:34;99908.67;;;0.82;100.00
31331;BME280;34067;39.548;-76.088;2023-02-28T09:21:05;99910.72;;;1.81;100.00
31331;BME280;34067;39.548;-76.088;2023-02-28T09:23:32;99924.32;;;2.53;100.00
31331;BME280;34067;39.548;-76.088;2023-02-28T09:26:01;99927.88;;;1.44;100.00
31331;BME280;34067;39.548;-76.088;2023-02-28T09:28:29;99926.30;;;1.37;100.00
31331;BME280;34067;39.548;-76.088;2023-02-28T09:30:57;99919.06;;;1.88;98.19
31331;BME280;34067;39.548;-76.088;2023-02-28T09:33:25;99941.94;;;2.36;98.03
31331;BME280;34067;39.548;-76.088;2023-02-28T09:36:00;99952.10;;;1.65;99.26
31331;BME280;34067;39.548;-76.088;2023-02-28T09:38:28;99947.07;;;-0.17;100.00
31331;BME280;34067;39.548;-76.088;2023-02-28T09:41:00;99944.27;;;1.35;100.00
31331;BME280;34067;39.548;-76.088;2023-02-28T09:43:33;99948.87;;;1.69;100.00
31331;BME280;34067;39.548;-76.088;2023-02-28T09:46:18;99951.72;;;1.90;100.00
31331;BME280;34067;39.548;-76.088;2023-02-28T09:48:49;99955.46;;;1.03;100.00
31331;BME280;34067;39.548;-76.088;2023-02-28T09:51:30;99955.60;;;0.71;100.00
31331;BME280;34067;39.548;-76.088;2023-02-28T09:54:01;99964.36;;;1.13;100.00
31331;BME280;34067;39.548;-76.088;2023-02-28T09:56:35;99980.94;;;-0.40;100.00
31331;BME280;34067;39.548;-76.088;2023-02-28T09:59:09;99983.25;;;1.05;100.00
31331;BME280;34067;39.548;-76.088;2023-02-28T10:01:45;99988.48;;;0.30;100.00
31331;BME280;34067;39.548;-76.088;2023-02-28T10:04:34;99991.98;;;0.38;100.00
31331;BME280;34067;39.548;-76.088;2023-02-28T10:07:10;99994.97;;;0.75;100.00
31331;BME280;34067;39.548;-76.088;2023-02-28T10:09:42;99997.60;;;1.74;100.00
31331;BME280;34067;39.548;-76.088;2023-02-28T10:12:10;99993.61;;;1.46;100.00
31331;BME280;34067;39.548;-76.088;2023-02-28T10:14:40;99994.71;;;0.54;100.00
31331;BME280;34067;39.548;-76.088;2023-02-28T10:17:16;99994.79;;;0.69;100.00
31331;BME280;34067;39.548;-76.088;2023-02-28T10:19:53;99997.08;;;1.12;100.00
31331;BME280;34067;39.548;-76.088;2023-02-28T10:22:28;99997.59;;;2.13;100.00
31331;BME280;34067;39.548;-76.088;2023-02-28T10:24:59;99996.70;;;1.90;100.00
31331;BME280;34067;39.548;-76.088;2023-02-28T10:27:30;99995.45;;;0.81;100.00
31331;BME280;34067;39.548;-76.088;2023-02-28T10:30:01;100000.51;;;1.69;100.00
31331;BME280;34067;39.548;-76.088;2023-02-28T10:32:32;100011.36;;;1.12;100.00
31331;BME280;34067;39.548;-76.088;2023-02-28T10:35:10;100020.68;;;1.13;100.00
31331;BME280;34067;39.548;-76.088;2023-02-28T10:37:47;100031.06;;;0.58;100.00
31331;BME280;34067;39.548;-76.088;2023-02-28T10:40:34;100032.42;;;1.04;100.00
31331;BME280;34067;39.548;-76.088;2023-02-28T10:43:04;100037.73;;;0.92;100.00
31331;BME280;34067;39.548;-76.088;2023-02-28T10:45:34;100039.24;;;1.45;100.00
31331;BME280;34067;39.548;-76.088;2023-02-28T10:48:06;100041.90;;;1.78;100.00
31331;BME280;34067;39.548;-76.088;2023-02-28T10:50:53;100052.47;;;1.89;100.00
31331;BME280;34067;39.548;-76.088;2023-02-28T10:53:30;100054.14;;;1.89;100.00
31331;BME280;34067;39.548;-76.088;2023-02-28T10:56:01;100057.10;;;1.68;100.00
31331;BME280;34067;39.548;-76.088;2023-02-28T10:58:31;100059.78;;;1.73;100.00
31331;BME280;34067;39.548;-76.088;2023-02-28T11:00:59;100067.11;;;1.65;100.00
31331;BME280;34067;39.548;-76.088;2023-02-28T11:03:34;100069.51;;;2.41;100.00
31331;BME280;34067;39.548;-76.088;2023-02-28T11:06:07;100069.96;;;2.68;99.39
31331;BME280;34067;39.548;-76.088;2023-02-28T11:08:46;100074.91;;;1.82;100.00
31331;BME280;34067;39.548;-76.088;2023-02-28T11:11:14;100076.72;;;2.49;99.60
31331;BME280;34067;39.548;-76.088;2023-02-28T11:13:44;100089.00;;;1.82;100.00
31331;BME280;34067;39.548;-76.088;2023-02-28T11:16:14;100098.29;;;1.65;100.00
31331;BME280;34067;39.548;-76.088;2023-02-28T11:18:49;100106.20;;;2.79;100.00
31331;BME280;34067;39.548;-76.088;2023-02-28T11:21:21;100114.14;;;2.74;100.00
31331;BME280;34067;39.548;-76.088;2023-02-28T11:23:53;100121.39;;;1.58;100.00
31331;BME280;34067;39.548;-76.088;2023-02-28T11:26:42;100125.65;;;1.82;100.00
31331;BME280;34067;39.548;-76.088;2023-02-28T11:29:17;100129.69;;;1.97;98.77
31331;BME280;34067;39.548;-76.088;2023-02-28T11:32:04;100136.63;;;1.69;96.46
31331;BME280;34067;39.548;-76.088;2023-02-28T11:34:33;100140.35;;;3.54;93.48
31331;BME280;34067;39.548;-76.088;2023-02-28T11:37:02;100148.50;;;2.18;97.26
31331;BME280;34067;39.548;-76.088;2023-02-28T11:39:32;100148.26;;;2.55;95.51
31331;BME280;34067;39.548;-76.088;2023-02-28T11:42:16;100153.87;;;1.71;99.15
31331;BME280;34067;39.548;-76.088;2023-02-28T11:44:59;100151.83;;;1.59;100.00
31331;BME280;34067;39.548;-76.088;2023-02-28T11:47:36;100152.65;;;2.67;100.00
31331;BME280;34067;39.548;-76.088;2023-02-28T11:50:35;100168.09;;;0.97;100.00
31331;BME280;34067;39.548;-76.088;2023-02-28T11:53:18;100171.69;;;2.57;99.98
31331;BME280;34067;39.548;-76.088;2023-02-28T11:55:54;100175.03;;;2.77;100.00
31331;BME280;34067;39.548;-76.088;2023-02-28T11:58:34;100182.68;;;2.66;99.03
31331;BME280;34067;39.548;-76.088;2023-02-28T12:01:19;100193.54;;;3.22;96.96
31331;BME280;34067;39.548;-76.088;2023-02-28T12:04:01;100204.50;;;2.17;95.60
31331;BME280;34067;39.548;-76.088;2023-02-28T12:06:38;100216.66;;;3.20;93.93
31331;BME280;34067;39.548;-76.088;2023-02-28T12:09:23;100229.11;;;4.24;90.36
31331;BME280;34067;39.548;-76.088;2023-02-28T12:11:58;100235.34;;;3.13;91.06
31331;BME280;34067;39.548;-76.088;2023-02-28T12:14:46;100239.98;;;2.66;93.56
31331;BME280;34067;39.548;-76.088;2023-02-28T12:17:27;100239.03;;;3.21;90.63
31331;BME280;34067;39.548;-76.088;2023-02-28T12:20:08;100248.94;;;4.52;87.29
31331;BME280;34067;39.548;-76.088;2023-02-28T12:22:48;100263.06;;;3.35;88.03
31331;BME280;34067;39.548;-76.088;2023-02-28T12:25:47;100266.33;;;3.83;88.40
31331;BME280;34067;39.548;-76.088;2023-02-28T12:28:23;100275.34;;;3.39;90.22
31331;BME280;34067;39.548;-76.088;2023-02-28T12:30:56;100272.35;;;4.80;85.86
31331;BME280;34067;39.548;-76.088;2023-02-28T12:33:28;100271.99;;;4.66;83.81
31331;BME280;34067;39.548;-76.088;2023-02-28T12:36:03;100283.71;;;4.52;84.06
31331;BME280;34067;39.548;-76.088;2023-02-28T12:38:38;100287.07;;;4.03;85.95
31331;BME280;34067;39.548;-76.088;2023-02-28T12:41:12;100293.29;;;4.42;85.39
31331;BME280;34067;39.548;-76.088;2023-02-28T12:43:45;100299.27;;;3.68;86.50
31331;BME280;34067;39.548;-76.088;2023-02-28T12:46:17;100300.36;;;3.85;88.28
31331;BME280;34067;39.548;-76.088;2023-02-28T12:48:50;100298.24;;;3.16;89.51
31331;BME280;34067;39.548;-76.088;2023-02-28T12:51:20;100307.96;;;3.65;91.19
31331;BME280;34067;39.548;-76.088;2023-02-28T12:53:56;100313.91;;;3.53;94.59
31331;BME280;34067;39.548;-76.088;2023-02-28T12:56:35;100316.36;;;3.51;93.22
31331;BME280;34067;39.548;-76.088;2023-02-28T12:59:12;100324.94;;;3.55;91.96
31331;BME280;34067;39.548;-76.088;2023-02-28T13:02:01;100328.21;;;4.00;91.49
31331;BME280;34067;39.548;-76.088;2023-02-28T13:04:57;100335.04;;;3.40;90.31